Time;durP1;ratioP1;P1;durP2;ratioP2;P2;SDS_P1;SDS_P2;PMS_P1;PMS_P2;Temp;Humidity;BMP_temperature;BMP_pressure;BME280_temperature;BME280_humidity;BME280_pressure;Samples;Min_cycle;Max_cycle;Signal;HPM_P1;HPM_P2
2023/06/25 00:01:00;;;;;;;10.80;9.90;;;;;;;;;;5073645;28;20214;-53
2023/06/25 00:03:26;;;;;;;10.20;9.33;;;;;;;;;;5073921;28;20208;-53
2023/06/25 00:05:52;;;;;;;10.53;9.43;;;;;;;;;;5070672;28;20261;-52
2023/06/25 00:08:18;;;;;;;10.70;9.80;;;;;;;;;;5071834;28;20218;-53
2023/06/25 00:10:44;;;;;;;10.50;9.60;;;;;;;;;;5073673;28;20688;-54
2023/06/25 00:13:10;;;;;;;11.10;10.10;;;;;;;;;;5073717;28;20180;-53
2023/06/25 00:15:38;;;;;;;10.50;9.67;;;;;;;;;;5073425;28;20199;-55
2023/06/25 00:18:04;;;;;;;10.67;9.40;;;;;;;;;;5073518;28;20213;-55
2023/06/25 00:20:30;;;;;;;11.43;10.53;;;;;;;;;;5073407;28;20277;-57
2023/06/25 00:22:56;;;;;;;11.80;10.73;;;;;;;;;;5073561;28;20199;-57
2023/06/25 00:25:26;;;;;;;12.17;11.17;;;;;;;;;;5073118;28;20347;-54
2023/06/25 00:27:52;;;;;;;12.10;11.00;;;;;;;;;;5073292;28;20620;-54
2023/06/25 00:30:18;;;;;;;12.33;11.27;;;;;;;;;;5073208;28;20536;-56
2023/06/25 00:32:46;;;;;;;11.23;10.27;;;;;;;;;;5073549;28;20216;-54
2023/06/25 00:35:13;;;;;;;11.53;10.53;;;;;;;;;;5073161;28;20199;-54
2023/06/25 00:37:45;;;;;;;11.23;10.30;;;;;;;;;;5073465;28;20191;-55
2023/06/25 00:40:11;;;;;;;11.73;10.73;;;;;;;;;;5073153;28;20239;-55
2023/06/25 00:42:41;;;;;;;12.00;10.90;;;;;;;;;;5073196;28;20270;-54
2023/06/25 00:45:07;;;;;;;14.23;12.83;;;;;;;;;;5073103;28;20225;-54
2023/06/25 00:47:33;;;;;;;15.03;13.67;;;;;;;;;;5073230;28;20286;-54
2023/06/25 00:50:02;;;;;;;13.33;12.03;;;;;;;;;;5072823;28;20278;-54
2023/06/25 00:52:28;;;;;;;13.10;11.60;;;;;;;;;;5073062;28;20283;-55
2023/06/25 00:54:54;;;;;;;12.67;11.43;;;;;;;;;;5072985;28;20298;-55
2023/06/25 00:57:21;;;;;;;12.80;11.70;;;;;;;;;;5072828;28;20194;-55
2023/06/25 00:59:48;;;;;;;10.60;9.80;;;;;;;;;;5072813;28;20223;-55
2023/06/25 01:02:18;;;;;;;10.23;9.33;;;;;;;;;;5072708;28;20211;-55
2023/06/25 01:04:47;;;;;;;10.67;9.77;;;;;;;;;;5072853;28;20229;-54
2023/06/25 01:07:17;;;;;;;10.33;9.53;;;;;;;;;;5070687;28;20206;-54
2023/06/25 01:09:44;;;;;;;9.87;9.07;;;;;;;;;;5072711;28;20198;-54
2023/06/25 01:12:10;;;;;;;11.00;9.93;;;;;;;;;;5072391;28;20701;-54
2023/06/25 01:14:36;;;;;;;10.33;9.53;;;;;;;;;;5072505;28;20561;-55
2023/06/25 01:17:02;;;;;;;10.80;9.87;;;;;;;;;;5071927;28;20289;-54
2023/06/25 01:19:31;;;;;;;10.27;9.47;;;;;;;;;;5071723;28;20307;-55
2023/06/25 01:21:58;;;;;;;11.80;10.70;;;;;;;;;;5072515;28;20294;-54
2023/06/25 01:24:25;;;;;;;11.37;10.37;;;;;;;;;;5072182;28;20202;-54
2023/06/25 01:26:54;;;;;;;11.90;10.87;;;;;;;;;;5072166;28;20640;-54
2023/06/25 01:29:20;;;;;;;18.40;16.70;;;;;;;;;;5072030;28;20197;-55
2023/06/25 01:31:46;;;;;;;14.67;13.17;;;;;;;;;;5072213;28;20621;-55
2023/06/25 01:34:12;;;;;;;11.47;10.47;;;;;;;;;;5072199;28;20289;-54
2023/06/25 01:36:40;;;;;;;12.00;11.00;;;;;;;;;;5072237;28;20294;-55
2023/06/25 01:39:06;;;;;;;11.90;11.00;;;;;;;;;;5072262;28;20226;-55
2023/06/25 01:41:34;;;;;;;12.07;11.07;;;;;;;;;;5072176;28;20334;-55
2023/06/25 01:44:00;;;;;;;11.50;10.37;;;;;;;;;;5071813;28;20210;-54
2023/06/25 01:46:26;;;;;;;11.13;10.03;;;;;;;;;;5071788;28;20213;-53
2023/06/25 01:48:52;;;;;;;11.70;10.70;;;;;;;;;;5071960;28;20615;-55
2023/06/25 01:51:18;;;;;;;11.70;10.80;;;;;;;;;;5071770;28;20229;-56
2023/06/25 01:53:44;;;;;;;11.77;10.80;;;;;;;;;;5071805;28;20194;-56
2023/06/25 01:56:10;;;;;;;10.70;9.90;;;;;;;;;;5071648;28;20202;-56
2023/06/25 01:58:37;;;;;;;11.60;10.70;;;;;;;;;;5070498;28;20209;-56
2023/06/25 02:01:03;;;;;;;11.77;10.67;;;;;;;;;;5071595;28;20225;-56
2023/06/25 02:03:29;;;;;;;10.93;10.13;;;;;;;;;;5071786;28;20565;-56
2023/06/25 02:05:55;;;;;;;12.73;11.60;;;;;;;;;;5071630;28;20271;-56
2023/06/25 02:08:21;;;;;;;10.93;9.97;;;;;;;;;;5071576;28;20691;-56
2023/06/25 02:10:47;;;;;;;11.37;10.37;;;;;;;;;;5071566;28;20193;-56
2023/06/25 02:13:14;;;;;;;14.17;12.77;;;;;;;;;;5071544;28;20202;-54
2023/06/25 02:15:42;;;;;;;22.60;20.27;;;;;;;;;;5071728;28;20205;-56
2023/06/25 02:18:08;;;;;;;13.63;12.33;;;;;;;;;;5071434;28;20193;-54
2023/06/25 02:20:34;;;;;;;13.40;12.10;;;;;;;;;;5071536;28;20254;-54
2023/06/25 02:23:00;;;;;;;13.47;12.27;;;;;;;;;;5071487;28;20242;-54
2023/06/25 02:25:26;;;;;;;21.17;18.20;;;;;;;;;;5069501;28;20676;-54
2023/06/25 02:27:52;;;;;;;12.67;11.57;;;;;;;;;;5071325;28;20205;-54
2023/06/25 02:30:18;;;;;;;12.43;11.33;;;;;;;;;;5070960;28;20189;-56
2023/06/25 02:32:45;;;;;;;12.90;11.67;;;;;;;;;;5071515;28;20811;-55
2023/06/25 02:35:11;;;;;;;12.13;11.13;;;;;;;;;;5071261;28;20546;-55
2023/06/25 02:37:37;;;;;;;11.70;10.80;;;;;;;;;;5071430;28;20243;-56
2023/06/25 02:40:03;;;;;;;13.03;11.80;;;;;;;;;;5071193;28;20225;-56
2023/06/25 02:42:29;;;;;;;13.60;12.20;;;;;;;;;;5071222;28;20207;-56
2023/06/25 02:44:55;;;;;;;12.90;11.77;;;;;;;;;;5071273;28;20262;-56
2023/06/25 02:47:21;;;;;;;11.77;10.70;;;;;;;;;;5071175;28;20203;-56
2023/06/25 02:49:49;;;;;;;11.07;10.07;;;;;;;;;;5071242;28;20562;-56
2023/06/25 02:52:15;;;;;;;11.70;10.60;;;;;;;;;;5071150;28;20244;-56
2023/06/25 02:54:41;;;;;;;12.57;11.37;;;;;;;;;;5071251;28;20216;-56
2023/06/25 02:57:07;;;;;;;12.80;11.80;;;;;;;;;;5071174;28;20233;-56
2023/06/25 02:59:33;;;;;;;80.30;60.57;;;;;;;;;;5070926;28;20715;-56
2023/06/25 03:01:59;;;;;;;86.20;61.70;;;;;;;;;;5070960;28;20235;-55
2023/06/25 03:04:25;;;;;;;64.43;50.97;;;;;;;;;;5070619;28;20221;-55
2023/06/25 03:06:52;;;;;;;38.13;31.03;;;;;;;;;;5070673;28;20199;-56
2023/06/25 03:09:18;;;;;;;29.40;22.30;;;;;;;;;;5070834;28;20221;-55
2023/06/25 03:11:44;;;;;;;19.90;17.27;;;;;;;;;;5071126;28;20228;-55
2023/06/25 03:14:10;;;;;;;14.60;13.33;;;;;;;;;;5070503;28;20201;-55
2023/06/25 03:16:36;;;;;;;14.13;12.77;;;;;;;;;;5070960;28;20205;-56
2023/06/25 03:19:02;;;;;;;11.77;10.87;;;;;;;;;;5070791;28;20259;-56
2023/06/25 03:21:28;;;;;;;11.50;10.60;;;;;;;;;;5070604;28;20244;-56
2023/06/25 03:23:56;;;;;;;11.13;10.13;;;;;;;;;;5070913;28;20200;-55
2023/06/25 03:26:22;;;;;;;11.27;10.03;;;;;;;;;;5070807;28;20242;-56
2023/06/25 03:28:48;;;;;;;11.80;10.83;;;;;;;;;;5070679;28;20207;-55
2023/06/25 03:31:14;;;;;;;11.20;10.30;;;;;;;;;;5070765;28;20206;-55
2023/06/25 03:33:40;;;;;;;13.30;11.90;;;;;;;;;;5070981;28;20227;-56
2023/06/25 03:36:06;;;;;;;15.23;13.37;;;;;;;;;;5070761;28;20227;-55
2023/06/25 03:38:33;;;;;;;11.83;10.73;;;;;;;;;;5070769;28;20282;-55
2023/06/25 03:41:00;;;;;;;11.33;10.23;;;;;;;;;;5071277;28;20828;-55
2023/06/25 03:43:26;;;;;;;12.90;11.80;;;;;;;;;;5074165;28;20200;-55
2023/06/25 03:45:52;;;;;;;12.00;11.00;;;;;;;;;;5074303;28;20235;-55
2023/06/25 03:48:18;;;;;;;12.37;11.27;;;;;;;;;;5074101;28;20235;-55
2023/06/25 03:50:45;;;;;;;12.30;11.30;;;;;;;;;;5074133;28;20781;-55
2023/06/25 03:53:11;;;;;;;12.67;11.67;;;;;;;;;;5074048;28;20288;-55
2023/06/25 03:55:37;;;;;;;11.57;10.57;;;;;;;;;;5074220;28;20227;-54
2023/06/25 03:58:04;;;;;;;11.37;10.37;;;;;;;;;;5073947;28;20236;-54
2023/06/25 04:00:31;;;;;;;12.70;11.50;;;;;;;;;;5073853;28;20225;-54
2023/06/25 04:02:57;;;;;;;13.00;11.80;;;;;;;;;;5073967;28;20230;-54
2023/06/25 04:05:23;;;;;;;12.27;11.17;;;;;;;;;;5073682;28;20658;-54
2023/06/25 04:07:49;;;;;;;11.20;10.40;;;;;;;;;;5073860;28;20239;-54
2023/06/25 04:10:15;;;;;;;12.77;10.57;;;;;;;;;;5073711;28;20216;-54
2023/06/25 04:12:41;;;;;;;11.73;10.67;;;;;;;;;;5073770;28;20199;-55
2023/06/25 04:15:09;;;;;;;13.97;12.50;;;;;;;;;;5073705;28;20203;-54
2023/06/25 04:17:35;;;;;;;11.70;10.63;;;;;;;;;;5073681;28;20205;-54
2023/06/25 04:20:01;;;;;;;11.87;10.93;;;;;;;;;;5073622;28;20254;-54
2023/06/25 04:22:27;;;;;;;11.57;10.60;;;;;;;;;;5073497;28;20212;-55
2023/06/25 04:24:53;;;;;;;12.27;10.93;;;;;;;;;;5073553;28;20822;-55
2023/06/25 04:27:19;;;;;;;12.60;11.50;;;;;;;;;;5073308;28;20232;-54
2023/06/25 04:29:45;;;;;;;12.63;11.63;;;;;;;;;;5073413;28;20196;-55
2023/06/25 04:32:12;;;;;;;12.17;11.07;;;;;;;;;;5073389;28;20202;-55
2023/06/25 04:34:38;;;;;;;11.23;10.33;;;;;;;;;;5073446;28;20569;-55
2023/06/25 04:37:05;;;;;;;12.27;11.17;;;;;;;;;;5073259;28;20200;-55
2023/06/25 04:39:31;;;;;;;12.33;11.27;;;;;;;;;;5073107;28;20265;-54
2023/06/25 04:41:57;;;;;;;12.40;11.30;;;;;;;;;;5073368;28;20191;-55
2023/06/25 04:44:23;;;;;;;12.63;11.47;;;;;;;;;;5073034;28;20202;-55
2023/06/25 04:46:49;;;;;;;12.10;10.47;;;;;;;;;;5073334;28;20203;-55
2023/06/25 04:49:16;;;;;;;14.07;10.77;;;;;;;;;;5072861;28;20198;-55
2023/06/25 04:51:45;;;;;;;11.03;9.97;;;;;;;;;;5072983;28;20206;-55
2023/06/25 04:54:11;;;;;;;11.63;10.57;;;;;;;;;;5072855;28;20661;-54
2023/06/25 04:56:37;;;;;;;11.17;10.27;;;;;;;;;;5073146;28;20244;-54
2023/06/25 04:59:03;;;;;;;11.57;10.47;;;;;;;;;;5072666;28;20255;-55
2023/06/25 05:01:29;;;;;;;10.87;9.93;;;;;;;;;;5070728;28;20198;-55
2023/06/25 05:03:55;;;;;;;11.03;9.93;;;;;;;;;;5072657;28;20582;-54
2023/06/25 05:06:22;;;;;;;10.67;9.63;;;;;;;;;;5072678;28;20346;-55
2023/06/25 05:08:48;;;;;;;10.60;9.70;;;;;;;;;;5072699;28;20290;-55
2023/06/25 05:11:14;;;;;;;10.43;9.37;;;;;;;;;;5072533;28;20286;-55
2023/06/25 05:13:41;;;;;;;10.27;9.37;;;;;;;;;;5072632;28;20200;-54
2023/06/25 05:16:07;;;;;;;11.03;10.13;;;;;;;;;;5072499;28;20199;-55
2023/06/25 05:18:33;;;;;;;9.13;8.43;;;;;;;;;;5072379;28;20271;-54
2023/06/25 05:20:59;;;;;;;12.37;11.17;;;;;;;;;;5072372;28;20354;-55
2023/06/25 05:23:26;;;;;;;10.30;9.40;;;;;;;;;;5072341;28;20570;-55
2023/06/25 05:25:52;;;;;;;10.97;9.87;;;;;;;;;;5072208;28;20339;-54
2023/06/25 05:28:18;;;;;;;12.27;11.10;;;;;;;;;;5072261;28;20285;-54
2023/06/25 05:30:44;;;;;;;11.83;10.80;;;;;;;;;;5072332;28;20191;-55
2023/06/25 05:33:10;;;;;;;10.60;9.50;;;;;;;;;;5072192;28;20207;-53
2023/06/25 05:35:36;;;;;;;11.87;10.67;;;;;;;;;;5072295;28;20202;-54
2023/06/25 05:38:02;;;;;;;10.87;9.87;;;;;;;;;;5072109;28;20191;-55
2023/06/25 05:40:30;;;;;;;9.83;8.93;;;;;;;;;;5072062;28;20795;-54
2023/06/25 05:42:56;;;;;;;10.83;9.73;;;;;;;;;;5072062;28;20207;-55
2023/06/25 05:45:22;;;;;;;10.10;9.30;;;;;;;;;;5071833;28;20799;-55
2023/06/25 05:47:48;;;;;;;10.33;9.33;;;;;;;;;;5071886;28;20195;-55
2023/06/25 05:50:14;;;;;;;9.63;8.77;;;;;;;;;;5071935;28;20196;-55
2023/06/25 05:52:41;;;;;;;9.67;8.87;;;;;;;;;;5071732;28;20610;-55
2023/06/25 05:55:08;;;;;;;9.63;8.73;;;;;;;;;;5071796;28;20233;-56
2023/06/25 05:57:35;;;;;;;9.97;8.97;;;;;;;;;;5071607;28;20276;-55
2023/06/25 06:00:04;;;;;;;10.40;9.50;;;;;;;;;;5071698;28;20230;-56
2023/06/25 06:02:30;;;;;;;10.20;9.03;;;;;;;;;;5071661;28;20226;-56
2023/06/25 06:04:56;;;;;;;10.60;9.50;;;;;;;;;;5068854;28;20875;-54
2023/06/25 06:07:22;;;;;;;9.43;8.63;;;;;;;;;;5071272;28;20199;-55
2023/06/25 06:09:48;;;;;;;9.97;8.67;;;;;;;;;;5071094;28;21017;-55
2023/06/25 06:12:14;;;;;;;10.53;8.60;;;;;;;;;;5071061;28;20199;-55
2023/06/25 06:14:41;;;;;;;9.83;8.20;;;;;;;;;;5070899;28;20199;-55
2023/06/25 06:17:08;;;;;;;9.20;8.30;;;;;;;;;;5071085;28;20203;-55
2023/06/25 06:19:34;;;;;;;8.83;7.93;;;;;;;;;;5070975;28;20231;-56
2023/06/25 06:22:00;;;;;;;8.27;7.43;;;;;;;;;;5070891;28;20249;-55
2023/06/25 06:24:27;;;;;;;10.07;7.23;;;;;;;;;;5071097;28;20227;-55
2023/06/25 06:26:53;;;;;;;8.10;7.00;;;;;;;;;;5070875;28;20254;-56
2023/06/25 06:29:19;;;;;;;7.43;6.60;;;;;;;;;;5070883;28;20195;-56
2023/06/25 06:31:46;;;;;;;7.67;6.93;;;;;;;;;;5071087;28;20203;-55
2023/06/25 06:34:12;;;;;;;7.57;6.70;;;;;;;;;;5070997;28;20191;-56
2023/06/25 06:36:38;;;;;;;9.50;7.03;;;;;;;;;;5070897;28;20684;-57
2023/06/25 06:39:04;;;;;;;9.07;6.47;;;;;;;;;;5071037;28;20195;-56
2023/06/25 06:41:30;;;;;;;7.67;6.97;;;;;;;;;;5070700;28;20203;-56
2023/06/25 06:44:09;;;;;;;6.83;6.20;;;;;;;;;;5070876;28;20291;-56
2023/06/25 06:46:35;;;;;;;8.10;5.80;;;;;;;;;;5070873;28;20261;-56
2023/06/25 06:49:02;;;;;;;7.23;6.07;;;;;;;;;;5070835;28;20200;-56
2023/06/25 06:51:28;;;;;;;6.23;5.73;;;;;;;;;;5070635;28;20207;-54
2023/06/25 06:53:54;;;;;;;6.53;5.93;;;;;;;;;;5070851;28;20200;-55
2023/06/25 06:56:20;;;;;;;5.40;5.00;;;;;;;;;;5070615;28;20200;-55
2023/06/25 06:58:46;;;;;;;5.60;5.10;;;;;;;;;;5070668;28;20684;-56
2023/06/25 07:01:12;;;;;;;6.27;5.70;;;;;;;;;;5070423;28;20224;-56
2023/06/25 07:03:38;;;;;;;5.93;4.77;;;;;;;;;;5070689;28;20656;-54
2023/06/25 07:06:06;;;;;;;6.80;6.10;;;;;;;;;;5070732;28;20208;-54
2023/06/25 07:08:32;;;;;;;6.63;5.33;;;;;;;;;;5070613;28;20208;-54
2023/06/25 07:10:58;;;;;;;12.50;5.40;;;;;;;;;;5070559;28;20193;-54
2023/06/25 07:13:24;;;;;;;6.13;5.53;;;;;;;;;;5070400;28;20664;-54
2023/06/25 07:15:50;;;;;;;5.30;4.60;;;;;;;;;;5070937;28;20204;-54
2023/06/25 07:18:16;;;;;;;5.93;5.40;;;;;;;;;;5074192;28;20206;-54
2023/06/25 07:20:42;;;;;;;6.03;4.90;;;;;;;;;;5072259;28;20265;-54
2023/06/25 07:23:10;;;;;;;5.50;4.97;;;;;;;;;;5074082;28;20190;-54
2023/06/25 07:25:36;;;;;;;4.80;4.40;;;;;;;;;;5073582;28;20209;-54
2023/06/25 07:28:02;;;;;;;4.53;4.23;;;;;;;;;;5073921;28;20211;-54
2023/06/25 07:30:28;;;;;;;6.10;5.37;;;;;;;;;;5073838;28;20211;-54
2023/06/25 07:32:54;;;;;;;4.73;4.33;;;;;;;;;;5073870;28;20277;-54
2023/06/25 07:35:21;;;;;;;4.87;4.47;;;;;;;;;;5073600;28;20207;-54
2023/06/25 07:37:47;;;;;;;4.43;4.07;;;;;;;;;;5073813;28;20203;-55
2023/06/25 07:40:15;;;;;;;5.47;4.83;;;;;;;;;;5073712;28;20229;-54
2023/06/25 07:42:41;;;;;;;5.10;4.47;;;;;;;;;;5073687;28;20298;-54
2023/06/25 07:45:07;;;;;;;4.97;4.47;;;;;;;;;;5073680;28;20243;-54
2023/06/25 07:47:33;;;;;;;6.20;4.63;;;;;;;;;;5073028;28;20301;-54
2023/06/25 07:49:59;;;;;;;5.47;4.97;;;;;;;;;;5073696;28;20697;-54
2023/06/25 07:52:25;;;;;;;4.37;3.97;;;;;;;;;;5073615;28;20196;-55
2023/06/25 07:54:51;;;;;;;5.27;4.80;;;;;;;;;;5073785;28;20200;-54
2023/06/25 07:57:18;;;;;;;4.57;4.17;;;;;;;;;;5073429;28;21077;-54
2023/06/25 07:59:44;;;;;;;5.13;4.17;;;;;;;;;;5073443;28;20227;-55
2023/06/25 08:02:11;;;;;;;5.43;4.20;;;;;;;;;;5073359;28;20741;-55
2023/06/25 08:04:37;;;;;;;5.93;5.33;;;;;;;;;;5073518;28;20290;-55
2023/06/25 08:07:03;;;;;;;5.97;4.03;;;;;;;;;;5073247;28;20196;-56
2023/06/25 08:09:29;;;;;;;5.33;4.73;;;;;;;;;;5073420;28;20278;-54
2023/06/25 08:11:55;;;;;;;4.67;4.07;;;;;;;;;;5073174;28;20936;-54
2023/06/25 08:14:22;;;;;;;4.23;3.90;;;;;;;;;;5073405;28;20198;-54
2023/06/25 08:16:48;;;;;;;5.83;4.20;;;;;;;;;;5073301;28;20199;-56
2023/06/25 08:19:14;;;;;;;5.00;4.60;;;;;;;;;;5073152;28;20207;-55
2023/06/25 08:21:40;;;;;;;4.30;3.90;;;;;;;;;;5073223;28;20199;-55
2023/06/25 08:24:06;;;;;;;3.83;3.53;;;;;;;;;;5072866;28;20662;-55
2023/06/25 08:26:32;;;;;;;5.57;4.13;;;;;;;;;;5072088;28;20306;-55
2023/06/25 08:28:58;;;;;;;4.30;3.60;;;;;;;;;;5072995;28;20283;-55
2023/06/25 08:31:26;;;;;;;5.50;3.93;;;;;;;;;;5072777;28;20293;-55
2023/06/25 08:33:52;;;;;;;4.93;4.43;;;;;;;;;;5072802;28;20236;-55
2023/06/25 08:36:18;;;;;;;4.40;4.00;;;;;;;;;;5072593;28;20204;-55
2023/06/25 08:38:44;;;;;;;4.93;4.43;;;;;;;;;;5072740;28;20253;-55
2023/06/25 08:41:10;;;;;;;5.80;4.20;;;;;;;;;;5072486;28;20299;-55
2023/06/25 08:43:36;;;;;;;6.80;4.23;;;;;;;;;;5072691;28;20192;-55
2023/06/25 08:46:03;;;;;;;5.20;4.63;;;;;;;;;;5072651;28;20729;-56
2023/06/25 08:48:31;;;;;;;5.07;4.60;;;;;;;;;;5072523;28;20201;-55
2023/06/25 08:50:58;;;;;;;4.47;4.07;;;;;;;;;;5072750;28;20197;-55
2023/06/25 08:53:25;;;;;;;5.57;4.40;;;;;;;;;;5072496;28;20628;-55
2023/06/25 08:55:51;;;;;;;4.93;4.53;;;;;;;;;;5072325;28;20205;-55
2023/06/25 08:58:17;;;;;;;5.00;4.50;;;;;;;;;;5072309;28;20268;-55
2023/06/25 09:00:43;;;;;;;5.87;4.90;;;;;;;;;;5072449;28;20235;-55
2023/06/25 09:03:09;;;;;;;6.03;4.73;;;;;;;;;;5072544;28;20206;-55
2023/06/25 09:05:37;;;;;;;4.83;4.43;;;;;;;;;;5071977;28;20756;-55
2023/06/25 09:08:03;;;;;;;4.83;4.43;;;;;;;;;;5072056;28;20222;-55
2023/06/25 09:10:31;;;;;;;4.60;4.20;;;;;;;;;;5071864;28;20228;-54
2023/06/25 09:13:00;;;;;;;4.60;4.20;;;;;;;;;;5071605;28;20209;-55
2023/06/25 09:15:26;;;;;;;4.27;3.90;;;;;;;;;;5071161;28;20237;-55
2023/06/25 09:17:55;;;;;;;4.43;4.03;;;;;;;;;;5071587;28;20233;-55
2023/06/25 09:20:22;;;;;;;4.90;4.40;;;;;;;;;;5071933;28;20226;-55
2023/06/25 09:22:50;;;;;;;6.63;4.40;;;;;;;;;;5071690;28;20203;-55
2023/06/25 09:25:17;;;;;;;4.53;3.50;;;;;;;;;;5071928;28;20206;-55
2023/06/25 09:27:43;;;;;;;5.07;4.23;;;;;;;;;;5071487;28;20231;-55
2023/06/25 09:30:10;;;;;;;4.20;3.80;;;;;;;;;;5071732;28;20202;-56
2023/06/25 09:32:47;;;;;;;3.93;3.63;;;;;;;;;;5071474;28;20239;-56
2023/06/25 09:35:17;;;;;;;5.80;4.10;;;;;;;;;;5071683;28;20203;-56
2023/06/25 09:37:43;;;;;;;4.73;4.30;;;;;;;;;;5071437;28;20590;-56
2023/06/25 09:40:11;;;;;;;5.63;4.10;;;;;;;;;;5070555;28;20221;-55
2023/06/25 09:42:38;;;;;;;4.53;4.13;;;;;;;;;;5071187;28;20212;-56
2023/06/25 09:45:04;;;;;;;5.60;4.07;;;;;;;;;;5071295;28;20201;-56
2023/06/25 09:47:30;;;;;;;4.63;4.20;;;;;;;;;;5069165;28;20193;-56
2023/06/25 09:49:57;;;;;;;5.23;4.07;;;;;;;;;;5065321;28;20281;-56
2023/06/25 09:52:24;;;;;;;5.10;3.90;;;;;;;;;;5067870;28;20681;-56
2023/06/25 09:54:52;;;;;;;4.77;4.27;;;;;;;;;;5071054;28;20590;-54
2023/06/25 09:57:21;;;;;;;5.07;4.57;;;;;;;;;;5071051;28;20201;-55
2023/06/25 09:59:47;;;;;;;4.37;3.97;;;;;;;;;;5071407;28;20228;-53
2023/06/25 10:02:15;;;;;;;5.60;4.33;;;;;;;;;;5071262;28;20251;-53
2023/06/25 10:04:41;;;;;;;4.20;3.90;;;;;;;;;;5071206;28;20587;-53
2023/06/25 10:07:07;;;;;;;4.73;4.30;;;;;;;;;;5071413;28;20295;-54
2023/06/25 10:09:33;;;;;;;4.27;3.87;;;;;;;;;;5071177;28;20206;-54
2023/06/25 10:11:59;;;;;;;6.13;4.33;;;;;;;;;;5071287;28;20190;-54
2023/06/25 10:14:37;;;;;;;5.30;4.63;;;;;;;;;;5071244;28;20254;-53
2023/06/25 10:17:05;;;;;;;7.33;4.60;;;;;;;;;;5071268;28;20278;-53
2023/06/25 10:19:31;;;;;;;4.67;4.07;;;;;;;;;;5070976;28;20255;-53
2023/06/25 10:22:03;;;;;;;9.47;4.13;;;;;;;;;;5071330;28;20239;-54
2023/06/25 10:24:39;;;;;;;4.77;4.20;;;;;;;;;;5070975;28;20192;-53
2023/06/25 10:27:05;;;;;;;4.47;4.07;;;;;;;;;;5070965;28;20606;-54
2023/06/25 10:29:40;;;;;;;5.63;3.87;;;;;;;;;;5071014;28;20204;-54
2023/06/25 10:32:06;;;;;;;4.60;4.20;;;;;;;;;;5071055;28;20631;-53
2023/06/25 10:34:37;;;;;;;4.63;4.13;;;;;;;;;;5070958;28;20195;-53
2023/06/25 10:37:04;;;;;;;4.30;3.90;;;;;;;;;;5070984;28;20630;-54
2023/06/25 10:39:35;;;;;;;6.40;4.37;;;;;;;;;;5070718;28;20663;-54
2023/06/25 10:42:03;;;;;;;5.20;3.97;;;;;;;;;;5070399;28;20234;-54
2023/06/25 10:44:29;;;;;;;4.70;4.30;;;;;;;;;;5070887;28;20224;-54
2023/06/25 10:47:03;;;;;;;4.73;4.27;;;;;;;;;;5070935;28;20197;-54
2023/06/25 10:49:29;;;;;;;4.33;3.93;;;;;;;;;;5071056;28;20224;-54
2023/06/25 10:51:59;;;;;;;4.63;4.23;;;;;;;;;;5073588;28;20229;-53
2023/06/25 10:54:25;;;;;;;5.13;4.60;;;;;;;;;;5074935;28;20598;-52
2023/06/25 10:56:53;;;;;;;4.70;4.20;;;;;;;;;;5075164;28;20203;-52
2023/06/25 10:59:22;;;;;;;4.83;4.43;;;;;;;;;;5074821;28;20204;-53
2023/06/25 11:01:48;;;;;;;4.37;3.90;;;;;;;;;;5074847;28;20229;-53
2023/06/25 11:04:16;;;;;;;4.27;3.97;;;;;;;;;;5074765;28;20208;-53
2023/06/25 11:06:42;;;;;;;5.70;4.07;;;;;;;;;;5074448;28;20217;-52
2023/06/25 11:09:08;;;;;;;4.57;4.17;;;;;;;;;;5074664;28;20208;-53
2023/06/25 11:11:34;;;;;;;4.60;4.20;;;;;;;;;;5074401;28;20269;-53
2023/06/25 11:14:00;;;;;;;4.97;4.47;;;;;;;;;;5074402;28;20205;-53
2023/06/25 11:16:26;;;;;;;4.00;3.70;;;;;;;;;;5074133;28;20743;-54
2023/06/25 11:18:52;;;;;;;4.43;4.03;;;;;;;;;;5074395;28;20292;-53
2023/06/25 11:21:20;;;;;;;4.27;3.87;;;;;;;;;;5074245;28;20228;-54
2023/06/25 11:23:46;;;;;;;5.20;4.37;;;;;;;;;;5074346;28;20208;-55
2023/06/25 11:26:14;;;;;;;4.53;4.13;;;;;;;;;;5074209;28;20275;-53
2023/06/25 11:28:40;;;;;;;4.13;3.83;;;;;;;;;;5074402;28;20199;-54
2023/06/25 11:31:06;;;;;;;4.87;3.97;;;;;;;;;;5074217;28;20191;-56
2023/06/25 11:33:32;;;;;;;5.00;4.40;;;;;;;;;;5074266;28;20665;-53
2023/06/25 11:36:09;;;;;;;4.30;3.80;;;;;;;;;;5074394;28;20203;-55
2023/06/25 11:38:36;;;;;;;5.93;3.93;;;;;;;;;;5074109;28;20198;-54
2023/06/25 11:41:02;;;;;;;4.90;4.03;;;;;;;;;;5074279;28;20470;-53
2023/06/25 11:43:28;;;;;;;4.00;3.60;;;;;;;;;;5074251;28;20199;-53
2023/06/25 11:46:00;;;;;;;4.87;3.90;;;;;;;;;;5073946;28;20197;-53
2023/06/25 11:48:26;;;;;;;4.63;4.07;;;;;;;;;;5073704;28;20193;-53
2023/06/25 11:50:52;;;;;;;4.37;3.67;;;;;;;;;;5073757;28;20486;-53
2023/06/25 11:53:18;;;;;;;3.63;3.33;;;;;;;;;;5073773;28;20196;-53
2023/06/25 11:55:46;;;;;;;3.83;3.43;;;;;;;;;;5073837;28;20536;-53
2023/06/25 11:58:12;;;;;;;3.93;3.53;;;;;;;;;;5073779;28;20211;-53
2023/06/25 12:00:38;;;;;;;3.80;3.30;;;;;;;;;;5073501;28;20225;-53
2023/06/25 12:03:04;;;;;;;4.50;4.10;;;;;;;;;;5072643;28;20196;-53
2023/06/25 12:05:30;;;;;;;3.97;3.57;;;;;;;;;;5073479;28;20505;-53
2023/06/25 12:07:56;;;;;;;3.97;3.67;;;;;;;;;;5073331;28;20209;-53
2023/06/25 12:10:22;;;;;;;4.60;3.80;;;;;;;;;;5073432;28;20193;-55
2023/06/25 12:12:52;;;;;;;3.83;3.50;;;;;;;;;;5073329;28;20223;-54
2023/06/25 12:15:18;;;;;;;4.40;4.00;;;;;;;;;;5073449;28;20257;-53
2023/06/25 12:17:44;;;;;;;3.93;3.63;;;;;;;;;;5072920;28;20204;-53
2023/06/25 12:20:10;;;;;;;4.97;3.73;;;;;;;;;;5073261;28;20215;-53
2023/06/25 12:22:36;;;;;;;4.10;3.70;;;;;;;;;;5073484;28;20207;-52
2023/06/25 12:25:04;;;;;;;5.27;3.90;;;;;;;;;;5073169;28;20567;-53
2023/06/25 12:27:30;;;;;;;4.63;3.57;;;;;;;;;;5072783;28;20245;-53
2023/06/25 12:29:57;;;;;;;3.90;3.50;;;;;;;;;;5073324;28;20198;-53
2023/06/25 12:32:23;;;;;;;3.80;3.50;;;;;;;;;;5072931;28;20202;-54
2023/06/25 12:34:49;;;;;;;3.50;3.20;;;;;;;;;;5072889;28;20663;-54
2023/06/25 12:37:16;;;;;;;3.73;3.47;;;;;;;;;;5073031;28;20412;-55
2023/06/25 12:39:42;;;;;;;3.43;3.20;;;;;;;;;;5072754;28;20599;-53
2023/06/25 12:42:08;;;;;;;3.73;3.30;;;;;;;;;;5072831;28;20206;-54
2023/06/25 12:44:34;;;;;;;3.73;3.33;;;;;;;;;;5073062;28;20202;-53
2023/06/25 12:47:01;;;;;;;3.80;3.40;;;;;;;;;;5072843;28;20691;-54
2023/06/25 12:49:27;;;;;;;3.30;3.00;;;;;;;;;;5072811;28;20210;-54
2023/06/25 12:51:53;;;;;;;3.17;2.90;;;;;;;;;;5072749;28;20229;-54
2023/06/25 12:54:19;;;;;;;3.87;3.53;;;;;;;;;;5072684;28;20209;-53
2023/06/25 12:56:45;;;;;;;4.00;3.53;;;;;;;;;;5072710;28;20752;-54
2023/06/25 12:59:11;;;;;;;4.00;3.60;;;;;;;;;;5065150;28;20213;-53
2023/06/25 13:01:37;;;;;;;4.10;3.80;;;;;;;;;;5072189;28;20238;-54
2023/06/25 13:04:05;;;;;;;4.07;3.67;;;;;;;;;;5068639;28;20199;-54
2023/06/25 13:06:31;;;;;;;4.00;3.60;;;;;;;;;;5072456;28;20207;-54
2023/06/25 13:08:57;;;;;;;3.73;3.40;;;;;;;;;;5072250;28;20195;-54
2023/06/25 13:11:23;;;;;;;4.20;3.80;;;;;;;;;;5072495;28;20269;-54
2023/06/25 13:13:49;;;;;;;4.47;3.83;;;;;;;;;;5072222;28;20286;-54
2023/06/25 13:16:14;;;;;;;3.93;3.53;;;;;;;;;;5072050;28;20260;-54
2023/06/25 13:18:41;;;;;;;4.30;3.90;;;;;;;;;;5072417;28;20223;-55
2023/06/25 13:21:09;;;;;;;4.00;3.60;;;;;;;;;;5072223;28;20573;-54
2023/06/25 13:23:35;;;;;;;3.90;3.57;;;;;;;;;;5071851;28;20548;-55
2023/06/25 13:26:01;;;;;;;3.63;3.33;;;;;;;;;;5071805;28;20238;-55
2023/06/25 13:28:27;;;;;;;4.10;3.63;;;;;;;;;;5071925;28;20196;-54
2023/06/25 13:30:53;;;;;;;3.83;3.53;;;;;;;;;;5071835;28;20195;-53
2023/06/25 13:33:19;;;;;;;4.63;3.90;;;;;;;;;;5071850;28;20647;-54
2023/06/25 13:35:45;;;;;;;4.60;3.73;;;;;;;;;;5071849;28;20303;-55
2023/06/25 13:38:13;;;;;;;3.70;3.40;;;;;;;;;;5071772;28;20209;-55
2023/06/25 13:40:39;;;;;;;3.93;3.63;;;;;;;;;;5071590;28;20690;-55
2023/06/25 13:43:05;;;;;;;4.37;3.80;;;;;;;;;;5071875;28;20188;-54
2023/06/25 13:45:31;;;;;;;4.87;3.67;;;;;;;;;;5071722;28;20315;-56
2023/06/25 13:47:57;;;;;;;4.07;3.77;;;;;;;;;;5071831;28;20204;-54
2023/06/25 13:50:23;;;;;;;4.03;3.67;;;;;;;;;;5071776;28;20193;-54
2023/06/25 13:52:49;;;;;;;3.60;3.30;;;;;;;;;;5071497;28;20193;-54
2023/06/25 13:55:16;;;;;;;4.30;3.90;;;;;;;;;;5071595;28;20204;-52
2023/06/25 13:57:42;;;;;;;4.93;3.93;;;;;;;;;;5071284;28;20221;-51
2023/06/25 14:00:09;;;;;;;3.83;3.53;;;;;;;;;;5071217;28;20759;-52
2023/06/25 14:02:35;;;;;;;4.57;4.17;;;;;;;;;;5071384;28;20197;-51
2023/06/25 14:05:01;;;;;;;4.47;4.07;;;;;;;;;;5071313;28;20316;-50
2023/06/25 14:07:27;;;;;;;4.40;4.00;;;;;;;;;;5071468;28;20197;-50
2023/06/25 14:09:53;;;;;;;3.97;3.67;;;;;;;;;;5071413;28;20199;-51
2023/06/25 14:12:20;;;;;;;4.87;3.70;;;;;;;;;;5070985;28;20223;-51
2023/06/25 14:14:46;;;;;;;4.30;3.90;;;;;;;;;;5071321;28;20211;-52
2023/06/25 14:17:12;;;;;;;4.63;4.10;;;;;;;;;;5071037;28;20185;-55
2023/06/25 14:19:38;;;;;;;4.07;3.63;;;;;;;;;;5071235;28;20196;-53
2023/06/25 14:22:04;;;;;;;4.97;4.27;;;;;;;;;;5064842;28;20745;-53
2023/06/25 14:24:30;;;;;;;5.40;3.87;;;;;;;;;;5070071;28;20210;-54
2023/06/25 14:26:56;;;;;;;4.17;3.87;;;;;;;;;;5070765;28;20735;-54
2023/06/25 14:29:24;;;;;;;4.23;3.83;;;;;;;;;;5070867;28;20209;-54